createdAt,value
2019-01-21T00:00:42.683Z,2.10
2019-01-21T00:03:14.669Z,2.10
2019-01-21T00:05:41.086Z,2.10
2019-01-21T00:08:09.340Z,2.00
2019-01-21T00:10:37.634Z,2.00
2019-01-21T00:13:05.790Z,1.90
2019-01-21T00:15:34.423Z,1.90
2019-01-21T00:18:02.728Z,1.90
2019-01-21T00:20:30.860Z,1.90
2019-01-21T00:22:59.205Z,1.90
2019-01-21T00:25:27.389Z,1.90
2019-01-21T00:27:55.552Z,1.80
2019-01-21T00:30:23.737Z,1.80
2019-01-21T00:32:52.081Z,1.90
2019-01-21T00:35:20.285Z,1.90
2019-01-21T00:37:49.057Z,1.90
2019-01-21T00:40:17.342Z,1.90
2019-01-21T00:42:45.794Z,1.80
2019-01-21T00:45:14.195Z,1.80
2019-01-21T00:47:42.528Z,1.80
2019-01-21T00:50:10.953Z,1.80
2019-01-21T00:52:39.089Z,1.80
2019-01-21T00:55:07.493Z,1.80
2019-01-21T00:57:35.747Z,1.80
2019-01-21T01:00:07.107Z,1.70
2019-01-21T01:02:35.745Z,1.70
2019-01-21T01:05:05.302Z,1.70
2019-01-21T01:07:33.448Z,1.70
2019-01-21T01:10:01.639Z,1.60
2019-01-21T01:12:29.786Z,1.60
2019-01-21T01:14:58.078Z,1.60
2019-01-21T01:17:26.265Z,1.50
2019-01-21T01:19:54.601Z,1.60
2019-01-21T01:22:23.225Z,1.50
2019-01-21T01:24:51.314Z,1.60
2019-01-21T01:27:19.394Z,1.50
2019-01-21T01:29:47.534Z,1.60
2019-01-21T01:32:15.623Z,1.70
2019-01-21T01:34:43.773Z,1.70
2019-01-21T01:37:11.969Z,1.50
2019-01-21T01:39:40.093Z,1.60
2019-01-21T01:42:08.289Z,1.50
2019-01-21T01:44:36.640Z,1.50
2019-01-21T01:47:05.355Z,1.50
2019-01-21T01:49:33.584Z,1.60
2019-01-21T01:52:01.784Z,1.50
2019-01-21T01:54:30.041Z,1.50
2019-01-21T01:56:58.765Z,1.60
2019-01-21T01:59:27.027Z,1.60
2019-01-21T02:01:55.218Z,1.60
2019-01-21T02:04:23.467Z,1.60
2019-01-21T02:06:51.664Z,2.00
2019-01-21T02:09:20.195Z,1.60
2019-01-21T02:11:48.280Z,1.60
2019-01-21T02:14:16.497Z,1.50
2019-01-21T02:16:44.777Z,1.60
2019-01-21T02:19:13.043Z,1.50
2019-01-21T02:21:42.934Z,1.60
2019-01-21T02:24:15.293Z,1.60
2019-01-21T02:27:02.598Z,1.60
2019-01-21T02:29:58.673Z,1.60
2019-01-21T02:33:11.352Z,1.50
2019-01-21T02:36:06.264Z,1.50
2019-01-21T02:39:19.832Z,1.50
2019-01-21T02:42:13.492Z,1.50
2019-01-21T02:45:28.893Z,1.40
2019-01-21T02:48:41.675Z,1.50
2019-01-21T02:51:47.161Z,1.50
2019-01-21T02:54:40.064Z,1.50
2019-01-21T02:57:39.896Z,1.40
2019-01-21T03:00:21.597Z,1.40
2019-01-21T03:03:29.890Z,1.40
2019-01-21T03:06:38.794Z,1.40
2019-01-21T03:09:49.115Z,1.40
2019-01-21T03:13:13.633Z,1.50
2019-01-21T03:16:12.950Z,1.40
2019-01-21T03:19:37.269Z,1.30
2019-01-21T03:22:39.177Z,1.20
2019-01-21T03:25:43.308Z,1.20
2019-01-21T03:28:55.501Z,1.20
2019-01-21T03:31:59.368Z,1.30
2019-01-21T03:35:12.928Z,1.30
2019-01-21T03:38:30.989Z,1.30
2019-01-21T03:41:48.525Z,1.30
2019-01-21T03:45:25.298Z,1.20
2019-01-21T03:48:16.334Z,1.20
2019-01-21T03:51:21.467Z,1.10
2019-01-21T03:54:07.622Z,1.10
2019-01-21T03:57:00.725Z,1.20
2019-01-21T04:00:07.602Z,1.20
2019-01-21T04:03:13.426Z,1.10
2019-01-21T04:06:06.893Z,1.10
2019-01-21T04:09:11.231Z,1.00
2019-01-21T04:12:17.833Z,1.00
2019-01-21T04:15:00.509Z,0.90
2019-01-21T04:18:24.527Z,0.90
2019-01-21T04:21:33.568Z,1.00
2019-01-21T04:25:06.139Z,0.90
2019-01-21T04:28:11.820Z,0.90
2019-01-21T04:31:23.104Z,0.80
2019-01-21T04:34:37.457Z,0.80
2019-01-21T04:38:05.208Z,0.80
2019-01-21T04:40:50.508Z,0.80
2019-01-21T04:43:43.840Z,0.80
2019-01-21T04:46:33.076Z,0.80
2019-01-21T04:50:12.877Z,0.80
2019-01-21T04:53:20.285Z,0.70
2019-01-21T04:56:33.089Z,0.60
2019-01-21T04:59:51.964Z,0.70
2019-01-21T05:03:11.019Z,0.60
2019-01-21T05:06:11.837Z,0.60
2019-01-21T05:09:26.034Z,0.60
2019-01-21T05:12:42.039Z,0.60
2019-01-21T05:16:03.603Z,0.60
2019-01-21T05:19:04.682Z,0.60
2019-01-21T05:22:00.329Z,0.60
2019-01-21T05:25:07.140Z,0.50
2019-01-21T05:28:06.110Z,0.50
2019-01-21T05:31:01.069Z,0.50
2019-01-21T05:33:57.275Z,0.50
2019-01-21T05:36:47.223Z,0.50
2019-01-21T05:39:42.046Z,0.50
2019-01-21T05:42:48.305Z,0.60
2019-01-21T05:45:46.919Z,0.60
2019-01-21T05:48:55.429Z,0.60
2019-01-21T05:52:05.160Z,0.70
2019-01-21T05:55:15.212Z,0.70
2019-01-21T05:58:23.625Z,0.60
2019-01-21T06:01:45.333Z,0.50
2019-01-21T06:05:13.098Z,0.50
2019-01-21T06:08:20.127Z,0.40
2019-01-21T06:11:11.277Z,0.40
2019-01-21T06:14:00.742Z,0.40
2019-01-21T06:16:39.437Z,0.40
2019-01-21T06:19:51.173Z,0.30
2019-01-21T06:22:58.085Z,0.40
2019-01-21T06:25:52.016Z,0.40
2019-01-21T06:29:19.871Z,0.30
2019-01-21T06:32:22.113Z,0.40
2019-01-21T06:35:21.549Z,0.30
2019-01-21T06:38:30.089Z,0.30
2019-01-21T06:41:32.634Z,0.40
2019-01-21T06:44:45.337Z,0.40
2019-01-21T06:47:41.560Z,0.30
2019-01-21T06:50:21.598Z,0.30
2019-01-21T06:53:30.049Z,0.30
2019-01-21T06:56:47.516Z,0.30
2019-01-21T06:59:56.195Z,0.20
2019-01-21T07:02:57.673Z,0.10
2019-01-21T07:06:13.005Z,0.20
2019-01-21T07:08:57.722Z,0.10
2019-01-21T07:12:18.009Z,0.10
2019-01-21T07:15:27.003Z,0.00
2019-01-21T07:18:32.641Z,0.10
2019-01-21T07:21:37.531Z,0.20
2019-01-21T07:24:43.260Z,0.30
2019-01-21T07:27:47.619Z,0.40
2019-01-21T07:31:09.405Z,0.50
2019-01-21T07:34:06.682Z,0.60
2019-01-21T07:37:02.516Z,0.50
2019-01-21T07:40:27.165Z,0.60
2019-01-21T07:43:46.137Z,0.60
2019-01-21T07:47:04.071Z,0.50
2019-01-21T07:50:28.910Z,0.50
2019-01-21T07:53:53.437Z,0.50
2019-01-21T07:57:00.449Z,0.60
2019-01-21T08:00:01.190Z,0.60
2019-01-21T08:03:03.588Z,0.60
2019-01-21T08:06:15.211Z,0.70
2019-01-21T08:09:08.000Z,0.80
2019-01-21T08:12:15.272Z,0.90
2019-01-21T08:15:49.493Z,1.10
2019-01-21T08:18:50.605Z,1.40
2019-01-21T08:21:56.055Z,1.60
2019-01-21T08:25:05.648Z,1.90
2019-01-21T08:27:54.581Z,2.20
2019-01-21T08:31:00.537Z,2.60
2019-01-21T08:33:59.356Z,2.80
2019-01-21T08:37:09.614Z,3.20
2019-01-21T08:39:46.414Z,3.50
2019-01-21T08:43:23.653Z,3.80
2019-01-21T08:46:27.664Z,4.00
2019-01-21T08:49:49.757Z,4.30
2019-01-21T08:52:58.085Z,4.60
2019-01-21T08:55:53.677Z,4.90
2019-01-21T08:59:00.566Z,5.00
2019-01-21T09:01:41.965Z,5.20
2019-01-21T09:04:42.870Z,5.40
2019-01-21T09:07:55.455Z,5.30
2019-01-21T09:11:00.793Z,5.40
2019-01-21T09:14:31.523Z,5.60
2019-01-21T09:17:57.347Z,5.70
2019-01-21T09:21:08.900Z,5.90
2019-01-21T09:24:02.424Z,6.00
2019-01-21T09:26:41.869Z,6.20
2019-01-21T09:29:46.557Z,6.30
2019-01-21T09:33:05.090Z,6.40
2019-01-21T09:36:18.344Z,6.50
2019-01-21T09:39:10.363Z,6.60
2019-01-21T09:42:35.252Z,6.80
2019-01-21T09:45:24.873Z,6.80
2019-01-21T09:47:51.693Z,6.90
2019-01-21T09:50:20.967Z,7.00
2019-01-21T09:52:49.850Z,7.10
2019-01-21T09:55:18.701Z,7.20
2019-01-21T09:57:48.624Z,7.20
2019-01-21T10:00:29.895Z,7.30
2019-01-21T10:02:59.806Z,7.40
2019-01-21T10:05:31.327Z,7.40
2019-01-21T10:08:29.914Z,7.50
2019-01-21T10:11:31.343Z,7.60
2019-01-21T10:14:42.854Z,7.70
2019-01-21T10:17:38.090Z,7.80
2019-01-21T10:20:38.484Z,7.90
2019-01-21T10:23:49.076Z,7.90
2019-01-21T10:26:45.895Z,7.90
2019-01-21T10:29:40.025Z,8.00
2019-01-21T10:33:01.293Z,8.20
2019-01-21T10:36:07.138Z,8.40
2019-01-21T10:39:09.438Z,8.60
2019-01-21T10:42:34.266Z,8.80
2019-01-21T10:45:40.760Z,9.00
2019-01-21T10:48:39.620Z,9.10
2019-01-21T10:52:04.883Z,9.30
2019-01-21T10:55:05.492Z,9.50
2019-01-21T10:57:56.007Z,9.60
2019-01-21T11:01:01.385Z,9.70
2019-01-21T11:04:06.882Z,9.80
2019-01-21T11:07:19.421Z,10.10
2019-01-21T11:10:30.713Z,10.30
2019-01-21T11:13:58.879Z,10.40
2019-01-21T11:17:20.402Z,10.40
2019-01-21T11:20:04.130Z,10.60
2019-01-21T11:22:45.565Z,10.70
2019-01-21T11:26:04.169Z,10.70
2019-01-21T11:29:19.839Z,10.80
2019-01-21T11:32:24.661Z,10.90
2019-01-21T11:35:37.385Z,11.10
2019-01-21T11:38:36.570Z,11.10
2019-01-21T11:41:33.449Z,11.30
2019-01-21T11:44:37.397Z,11.40
2019-01-21T11:47:51.196Z,11.40
2019-01-21T11:50:32.243Z,11.50
2019-01-21T11:53:16.769Z,11.50
2019-01-21T11:56:37.802Z,11.60
2019-01-21T11:59:47.296Z,11.60
2019-01-21T12:02:43.667Z,11.70
2019-01-21T12:05:38.066Z,11.80
2019-01-21T12:08:53.438Z,11.70
2019-01-21T12:12:08.113Z,11.80
2019-01-21T12:15:20.777Z,11.80
2019-01-21T12:18:17.486Z,11.80
2019-01-21T12:21:35.763Z,11.80
2019-01-21T12:24:54.472Z,11.70
2019-01-21T12:28:10.680Z,11.70
2019-01-21T12:30:50.796Z,11.60
2019-01-21T12:34:02.558Z,11.50
2019-01-21T12:37:04.543Z,11.50
2019-01-21T12:40:14.177Z,11.50
2019-01-21T12:43:02.634Z,11.40
2019-01-21T12:46:20.749Z,11.30
2019-01-21T12:49:27.137Z,11.30
2019-01-21T12:52:21.911Z,11.30
2019-01-21T12:55:41.259Z,11.40
2019-01-21T12:58:18.937Z,11.30
2019-01-21T13:01:02.812Z,11.40
2019-01-21T13:04:05.757Z,11.20
2019-01-21T13:07:36.578Z,11.40
2019-01-21T13:10:50.684Z,11.30
2019-01-21T13:14:03.201Z,11.10
2019-01-21T13:17:01.542Z,10.90
2019-01-21T13:20:13.640Z,10.80
2019-01-21T13:23:25.606Z,10.80
2019-01-21T13:26:35.061Z,10.70
2019-01-21T13:29:23.729Z,10.60
2019-01-21T13:32:18.745Z,10.50
2019-01-21T13:35:16.452Z,10.50
2019-01-21T13:38:40.257Z,10.40
2019-01-21T13:41:26.449Z,10.50
2019-01-21T13:44:42.160Z,10.50
2019-01-21T13:48:10.793Z,10.50
2019-01-21T13:51:05.174Z,10.50
2019-01-21T13:53:57.942Z,10.50
2019-01-21T13:57:10.881Z,10.50
2019-01-21T14:00:28.285Z,10.40
2019-01-21T14:03:29.255Z,10.40
2019-01-21T14:06:40.688Z,10.40
2019-01-21T14:09:34.858Z,10.40
2019-01-21T14:12:23.553Z,10.40
2019-01-21T14:15:33.492Z,10.40
2019-01-21T14:18:54.970Z,10.40
2019-01-21T14:21:56.572Z,10.30
2019-01-21T14:24:38.936Z,10.30
2019-01-21T14:27:45.437Z,10.30
2019-01-21T14:30:48.905Z,10.30
2019-01-21T14:33:49.197Z,10.30
2019-01-21T14:36:25.223Z,10.20
2019-01-21T14:39:51.765Z,10.20
2019-01-21T14:42:38.370Z,10.10
2019-01-21T14:45:41.069Z,10.00
2019-01-21T14:48:31.265Z,9.90
2019-01-21T14:51:24.677Z,9.90
2019-01-21T14:54:04.778Z,9.80
2019-01-21T14:57:04.309Z,9.80
2019-01-21T14:59:56.909Z,9.70
2019-01-21T15:02:55.070Z,9.60
2019-01-21T15:06:00.455Z,9.40
2019-01-21T15:08:38.114Z,9.40
2019-01-21T15:11:31.694Z,9.30
2019-01-21T15:14:50.551Z,9.30
2019-01-21T15:17:56.645Z,9.20
2019-01-21T15:20:31.817Z,9.10
2019-01-21T15:23:44.872Z,9.00
2019-01-21T15:26:34.970Z,8.80
2019-01-21T15:29:39.886Z,8.90
2019-01-21T15:32:39.948Z,9.00
2019-01-21T15:35:39.041Z,9.10
2019-01-21T15:38:31.426Z,9.30
2019-01-21T15:41:46.220Z,9.30
2019-01-21T15:44:57.657Z,9.30
2019-01-21T15:47:43.885Z,9.30
2019-01-21T15:50:49.489Z,9.30
2019-01-21T15:53:25.714Z,9.30
2019-01-21T15:56:10.965Z,9.20
2019-01-21T15:59:21.023Z,9.20
2019-01-21T16:02:25.906Z,9.10
2019-01-21T16:05:13.573Z,9.10
2019-01-21T16:08:01.477Z,9.10
2019-01-21T16:11:21.360Z,8.90
2019-01-21T16:13:57.094Z,8.80
2019-01-21T16:17:02.812Z,8.80
2019-01-21T16:19:53.172Z,8.70
2019-01-21T16:23:01.697Z,8.70
2019-01-21T16:25:44.613Z,8.50
2019-01-21T16:28:56.292Z,8.40
2019-01-21T16:31:44.180Z,8.40
2019-01-21T16:34:59.558Z,8.30
2019-01-21T16:37:44.114Z,8.20
2019-01-21T16:40:37.568Z,8.10
2019-01-21T16:43:05.932Z,7.90
2019-01-21T16:45:34.029Z,7.80
2019-01-21T16:48:02.188Z,7.60
2019-01-21T16:50:30.352Z,7.50
2019-01-21T16:52:58.613Z,7.50
2019-01-21T16:55:26.702Z,7.50
2019-01-21T16:57:54.944Z,7.40
2019-01-21T17:00:23.043Z,7.30
2019-01-21T17:02:51.737Z,7.20
2019-01-21T17:05:20.023Z,7.20
2019-01-21T17:07:48.177Z,7.20
2019-01-21T17:10:16.273Z,7.20
2019-01-21T17:12:44.490Z,7.10
2019-01-21T17:15:12.926Z,7.10
2019-01-21T17:17:41.178Z,7.10
2019-01-21T17:20:13.852Z,7.00
2019-01-21T17:22:42.305Z,6.90
2019-01-21T17:25:10.727Z,6.80
2019-01-21T17:27:39.028Z,6.80
2019-01-21T17:30:12.100Z,6.70
2019-01-21T17:32:40.184Z,6.80
2019-01-21T17:35:09.493Z,6.70
2019-01-21T17:37:37.698Z,6.80
2019-01-21T17:40:08.081Z,6.70
2019-01-21T17:42:36.295Z,6.70
2019-01-21T17:45:08.341Z,6.60
2019-01-21T17:47:36.772Z,6.60
2019-01-21T17:50:06.274Z,6.60
2019-01-21T17:52:34.390Z,6.60
2019-01-21T17:55:02.503Z,6.50
2019-01-21T17:57:31.640Z,6.50
2019-01-21T17:59:59.991Z,6.40
2019-01-21T18:02:28.075Z,6.40
2019-01-21T18:04:56.208Z,6.30
2019-01-21T18:07:24.381Z,6.30
2019-01-21T18:09:52.544Z,6.30
2019-01-21T18:12:20.637Z,6.30
2019-01-21T18:14:48.793Z,6.30
2019-01-21T18:17:16.903Z,6.30
2019-01-21T18:19:45.094Z,6.20
2019-01-21T18:22:13.436Z,6.20
2019-01-21T18:24:41.638Z,6.10
2019-01-21T18:27:09.808Z,6.00
2019-01-21T18:29:37.941Z,6.00
2019-01-21T18:32:06.143Z,5.90
2019-01-21T18:34:34.286Z,5.90
2019-01-21T18:37:02.721Z,5.80
2019-01-21T18:39:31.021Z,5.70
2019-01-21T18:41:59.303Z,5.70
2019-01-21T18:44:28.640Z,5.80
2019-01-21T18:46:56.728Z,5.70
2019-01-21T18:49:24.960Z,5.70
2019-01-21T18:51:53.141Z,5.70
2019-01-21T18:54:21.270Z,5.70
2019-01-21T18:56:49.450Z,5.60
2019-01-21T18:59:17.578Z,5.50
2019-01-21T19:01:45.678Z,5.40
2019-01-21T19:04:13.805Z,5.30
2019-01-21T19:06:42.000Z,5.20
2019-01-21T19:09:10.153Z,5.20
2019-01-21T19:11:38.236Z,4.60
2019-01-21T19:14:06.970Z,4.80
2019-01-21T19:16:35.147Z,4.90
2019-01-21T19:19:03.886Z,4.80
2019-01-21T19:21:31.953Z,4.80
2019-01-21T19:24:00.115Z,4.90
2019-01-21T19:26:28.282Z,5.00
2019-01-21T19:28:56.390Z,5.00
2019-01-21T19:31:24.613Z,5.00
2019-01-21T19:33:52.748Z,4.90
2019-01-21T19:36:20.974Z,4.90
2019-01-21T19:38:49.048Z,4.90
2019-01-21T19:41:17.201Z,5.00
2019-01-21T19:43:45.389Z,5.00
2019-01-21T19:46:13.734Z,5.00
2019-01-21T19:48:41.817Z,5.10
2019-01-21T19:51:10.766Z,5.00
2019-01-21T19:53:38.953Z,5.00
2019-01-21T19:56:07.300Z,5.00
2019-01-21T19:58:35.480Z,5.00
2019-01-21T20:01:04.009Z,4.90
2019-01-21T20:03:32.311Z,5.00
2019-01-21T20:06:00.553Z,4.90
2019-01-21T20:08:28.749Z,4.90
2019-01-21T20:10:56.887Z,4.90
2019-01-21T20:13:24.962Z,4.90
2019-01-21T20:15:53.832Z,4.80
2019-01-21T20:18:22.071Z,4.70
2019-01-21T20:20:50.195Z,4.70
2019-01-21T20:23:18.328Z,4.70
2019-01-21T20:25:48.818Z,4.70
2019-01-21T20:28:16.968Z,4.70
2019-01-21T20:30:45.210Z,4.70
2019-01-21T20:33:13.395Z,4.70
2019-01-21T20:35:41.665Z,4.70
2019-01-21T20:38:09.749Z,4.70
2019-01-21T20:40:38.989Z,4.60
2019-01-21T20:43:07.695Z,4.70
2019-01-21T20:45:36.577Z,4.70
2019-01-21T20:48:04.928Z,4.70
2019-01-21T20:50:35.314Z,4.70
2019-01-21T20:53:03.751Z,4.70
2019-01-21T20:55:32.474Z,4.80
2019-01-21T20:58:01.109Z,4.80
2019-01-21T21:00:30.092Z,4.80
2019-01-21T21:02:59.576Z,4.80
2019-01-21T21:05:28.714Z,4.80
2019-01-21T21:07:57.884Z,4.70
2019-01-21T21:10:27.099Z,4.60
2019-01-21T21:12:56.608Z,4.60
2019-01-21T21:15:27.799Z,4.60
2019-01-21T21:17:57.000Z,4.50
2019-01-21T21:20:26.384Z,4.50
2019-01-21T21:22:56.628Z,4.50
2019-01-21T21:25:25.078Z,4.40
2019-01-21T21:27:53.312Z,4.30
2019-01-21T21:30:29.625Z,4.30
2019-01-21T21:33:00.009Z,4.20
2019-01-21T21:35:28.549Z,4.10
2019-01-21T21:37:57.947Z,4.20
2019-01-21T21:40:26.445Z,4.20
2019-01-21T21:42:55.352Z,4.20
2019-01-21T21:45:26.122Z,4.10
2019-01-21T21:47:56.110Z,4.10
2019-01-21T21:50:29.550Z,4.10
2019-01-21T21:52:58.752Z,4.10
2019-01-21T21:55:29.666Z,4.10
2019-01-21T21:57:58.963Z,3.90
2019-01-21T22:00:31.651Z,3.80
2019-01-21T22:02:59.793Z,3.80
2019-01-21T22:05:28.751Z,3.70
2019-01-21T22:07:57.718Z,3.70
2019-01-21T22:10:27.869Z,3.70
2019-01-21T22:12:56.393Z,3.70
2019-01-21T22:15:25.608Z,3.80
2019-01-21T22:17:54.828Z,3.80
2019-01-21T22:20:24.618Z,3.70
2019-01-21T22:22:54.224Z,3.80
2019-01-21T22:25:22.368Z,3.80
2019-01-21T22:27:50.987Z,3.70
2019-01-21T22:30:21.672Z,3.80
2019-01-21T22:32:50.022Z,3.60
2019-01-21T22:35:18.972Z,3.80
2019-01-21T22:37:48.541Z,3.70
2019-01-21T22:40:18.869Z,3.70
2019-01-21T22:42:48.890Z,3.70
2019-01-21T22:45:25.997Z,3.60
2019-01-21T22:47:54.671Z,3.50
2019-01-21T22:50:22.732Z,3.50
2019-01-21T22:52:50.873Z,3.40
2019-01-21T22:55:19.153Z,3.40
2019-01-21T22:57:47.379Z,3.40
2019-01-21T23:00:30.116Z,3.30
2019-01-21T23:02:58.263Z,3.30
2019-01-21T23:05:26.362Z,3.30
2019-01-21T23:07:54.613Z,3.20
2019-01-21T23:10:22.738Z,3.10
2019-01-21T23:12:51.422Z,3.10
2019-01-21T23:15:19.537Z,3.10
2019-01-21T23:17:47.681Z,3.10
2019-01-21T23:20:15.811Z,3.10
2019-01-21T23:22:49.080Z,3.10
2019-01-21T23:25:13.891Z,3.00
2019-01-21T23:27:42.376Z,3.00
2019-01-21T23:30:12.155Z,3.00
2019-01-21T23:32:40.374Z,3.00
2019-01-21T23:35:08.665Z,3.00
2019-01-21T23:37:36.913Z,3.00
2019-01-21T23:40:06.445Z,3.00
2019-01-21T23:42:34.597Z,3.10
2019-01-21T23:45:08.020Z,3.10
2019-01-21T23:47:37.173Z,3.10
2019-01-21T23:50:06.177Z,3.10
2019-01-21T23:52:39.375Z,3.10
2019-01-21T23:55:21.377Z,2.60
2019-01-21T23:57:49.650Z,3.00
